Flight Track Log - Related Links

Times and Time Zones

All times are in EDT time to prevent confusion due to time zone crossing. See the EJA729 flight status page for this flight to view local times or setup timezone preferences in your user account.

Time Position Orientation Groundspeed Altitude Reporting Facility
EDT Latitude Longitude Course Direction KTS MPH feet Rate Location/Type
Wed 07:57:08 PM 35.3811 -97.6122 208° Southwest 160 184 2,100  Level Fort Worth Center
Wed 07:58:08 PM 35.3308 -97.6450 208° Southwest 219 252 4,900 3,031 Climbing Fort Worth Center
Wed 08:00:24 PM 35.3347 -97.8258 272° West 289 333 12,000 3,031 Climbing Fort Worth Center
Wed 08:01:24 PM 35.3906 -97.9228 305° West 313 360 14,800 2,800 Climbing Fort Worth Center
Wed 08:02:24 PM 35.4528 -98.0278 306° West 343 395 17,600 2,632 Climbing Fort Worth Center
Wed 08:03:59 PM 35.5497 -98.2006 305° West 397 457 21,600 2,369 Climbing Kansas City Center
Wed 08:05:01 PM 35.6156 -98.3147 305° West 406 467 23,800 1,694 Climbing Kansas City Center
Wed 08:06:03 PM 35.6781 -98.4269 304° West 418 481 25,100 1,355 Climbing Kansas City Center
Wed 08:07:05 PM 35.7472 -98.5506 305° West 432 497 26,600 1,452 Climbing Kansas City Center
Wed 08:08:07 PM 35.8164 -98.6722 305° West 434 499 28,100 1,500 Climbing Kansas City Center
Wed 08:09:09 PM 35.8875 -98.8031 304° West 434 499 29,700 1,500 Climbing Kansas City Center
Wed 08:10:11 PM 35.9558 -98.9253 305° West 434 499 31,200 1,597 Climbing Kansas City Center
Wed 08:11:13 PM 36.0367 -99.0739 304° West 434 499 33,000 1,597 Climbing Kansas City Center
Wed 08:12:15 PM 36.1036 -99.1936 305° West 431 496 34,500 1,415 Climbing Kansas City Center
Wed 08:13:16 PM 36.1675 -99.3122 304° West 421 484 35,900 1,220 Climbing Kansas City Center
Wed 08:14:18 PM 36.2369 -99.4422 304° West 420 483 37,000 968 Climbing Kansas City Center
Wed 08:15:20 PM 36.3033 -99.5647 304° West 425 489 37,900 484 Climbing Kansas City Center
Wed 08:16:22 PM 36.3689 -99.6872 304° West 426 490 38,000 48 Climbing Kansas City Center
Wed 08:17:24 PM 36.4317 -99.8039 304° West 413 475 38,000  Level Kansas City Center
Wed 08:18:26 PM 36.4931 -99.9189 304° West 401 461 38,000  Level Kansas City Center
Wed 08:19:28 PM 36.5672 -100.0581 304° West 402 463 38,000  Level Kansas City Center
Wed 08:20:30 PM 36.6300 -100.1775 303° West 408 470 38,000  Level Kansas City Center
Wed 08:21:32 PM 36.6939 -100.2969 304° West 413 475 38,000  Level Kansas City Center
Wed 08:22:34 PM 36.7617 -100.4278 303° West 417 480 38,000  Level Kansas City Center
Wed 08:23:36 PM 36.8242 -100.5439 304° West 419 482 38,000  Level Kansas City Center
Wed 08:24:38 PM 36.8944 -100.6819 303° West 421 484 38,000  Level Kansas City Center
Wed 08:25:40 PM 36.9561 -100.7992 303° West 421 484 38,000  Level Kansas City Center
Wed 08:26:42 PM 37.0164 -100.9167 303° West 419 482 38,000  Level Kansas City Center
Wed 08:27:44 PM 37.0967 -101.0486 307° West 424 488 38,000  Level Kansas City Center
Wed 08:28:46 PM 37.1725 -101.1567 311° West 428 493 38,000  Level Kansas City Center
Wed 08:29:48 PM 37.2597 -101.2850 311° West 430 495 38,000  Level Kansas City Center
Wed 08:30:50 PM 37.3336 -101.3947 310° West 428 493 38,000  Level Kansas City Center
Wed 08:31:51 PM 37.4211 -101.5233 311° West 430 495 38,000  Level Kansas City Center
Wed 08:32:53 PM 37.4956 -101.6328 311° West 430 495 38,000 -336 Level Kansas City Center
Wed 08:33:56 PM 37.5683 -101.7433 310° West 427 491 37,300 -968 Descending Kansas City Center
Wed 08:34:57 PM 37.6533 -101.8689 311° West 421 484 36,000 -634 Descending Kansas City Center
Wed 08:35:59 PM 37.7256 -101.9756 311° West 418 481 36,000  Level Kansas City Center
Wed 08:37:01 PM 37.8108 -102.1039 310° West 423 487 36,000 -919 Level Kansas City Center
Wed 08:38:03 PM 37.8844 -102.2147 310° West 427 491 34,100 -1,839 Descending Kansas City Center
Wed 08:39:05 PM 37.9731 -102.3469 310° West 437 503 32,200 -1,016 Descending Kansas City Center
Wed 08:40:07 PM 38.0497 -102.4611 310° West 442 509 32,000 -82 Descending Kansas City Center
Wed 08:41:32 PM 38.1597 -102.6297 310° West 433 498 32,000  Level Denver Center
Wed 08:42:34 PM 38.2300 -102.7428 308° West 428 493 32,000  Level Denver Center
Wed 08:43:36 PM 38.3042 -102.8850 304° West 432 497 32,000  Level Denver Center
Wed 08:44:38 PM 38.3700 -103.0094 304° West 440 506 32,000  Level Denver Center
Wed 08:45:40 PM 38.4508 -103.1561 305° West 451 519 32,000 -290 Level Denver Center
Wed 08:46:42 PM 38.5217 -103.2903 304° West 470 541 31,400 -1,548 Descending Denver Center
Wed 08:47:44 PM 38.6011 -103.4386 304° West 452 520 28,800 -2,146 Descending Denver Center
Wed 08:48:45 PM 38.6536 -103.5372 304° West 435 501 27,000 -2,226 Descending Denver Center
Wed 08:49:48 PM 38.7347 -103.6897 304° West 407 468 24,200 -2,256 Descending Denver Center
Wed 08:50:50 PM 38.7881 -103.7950 303° West 372 428 22,300 -1,935 Descending Denver Center
Wed 08:51:52 PM 38.8508 -103.9125 304° West 359 413 20,200 -1,839 Descending Denver Center
Wed 08:52:54 PM 38.9167 -103.9853 319° Northwest 359 413 18,500 -1,935 Descending Denver Center
Wed 08:53:56 PM 39.0094 -104.0736 324° Northwest 349 402 16,200 -1,258 Descending Denver Center
Wed 08:54:58 PM 39.0414 -104.1703 293° West 316 364 15,900 -823 Descending Denver Center
Wed 08:56:00 PM 39.0836 -104.2894 295° West 340 391 14,500 -1,403 Descending Denver Center
Wed 08:57:02 PM 39.1606 -104.3767 319° Northwest 383 441 13,000 -847 Descending Denver Center
Wed 08:58:50 PM 39.3167 -104.5500 319° Northwest 372 428 12,100 -929 Descending Denver TRACON
Wed 08:59:50 PM 39.3833 -104.6333 316° Northwest 354 407 10,400 -1,350 Descending Denver TRACON
Wed 09:00:50 PM 39.4667 -104.6833 335° Northwest 333 383 9,400 -950 Descending Denver TRACON
Wed 09:01:50 PM 39.5333 -104.7333 330° Northwest 300 345 8,500 -950 Descending Denver TRACON
Wed 09:02:50 PM 39.6000 -104.7833 330° Northwest 277 319 7,500 -1,050 Descending Denver TRACON
Wed 09:03:50 PM 39.6167 -104.8333 293° West 185 213 6,400 -800 Descending Denver TRACON
Wed 09:04:50 PM 39.5833 -104.8500 201° Southwest 129 148 5,900 -500 Descending Denver TRACON
Wed 09:07:00 PM 39.5701 -104.8493 142° Southeast  Level Estimated
Wed 09:14:00 PM 39.5701 -104.8493 142° Southeast  Level Estimated
Wed 09:15:00 PM 39.5701 -104.8493 142° Southeast  Level Estimated

Login

Don't have an account? Register now (free) for customized features, flight alerts, and more!